Time;durP1;ratioP1;P1;durP2;ratioP2;P2;SDS_P1;SDS_P2;PMS_P1;PMS_P2;Temp;Humidity;BMP_temperature;BMP_pressure;BME280_temperature;BME280_humidity;BME280_pressure;Samples;Min_cycle;Max_cycle;Signal;HPM_P1;HPM_P2
2022/11/12 00:02:05;;;;;;;;;;;;;;;5.67;100.00;98885.67;107649;1270;69501;-68
2022/11/12 00:04:53;;;;;;;;;;;;;;;5.67;100.00;98881.67;107616;1269;69669;-68
2022/11/12 00:07:41;;;;;;;;;;;;;;;5.68;100.00;98884.44;107632;1269;60599;-68
2022/11/12 00:10:32;;;;;;;;;;;;;;;5.65;100.00;98887.98;107648;1268;60471;-68
2022/11/12 00:13:20;;;;;;;;;;;;;;;5.62;100.00;98881.66;107627;1268;72195;-68
2022/11/12 00:16:08;;;;;;;;;;;;;;;5.62;100.00;98874.92;107619;1268;70043;-68
2022/11/12 00:18:56;;;;;;;;;;;;;;;5.62;100.00;98870.41;107597;1269;70007;-68
2022/11/12 00:21:44;;;;;;;;;;;;;;;5.64;100.00;98866.57;107669;1266;60504;-68
2022/11/12 00:24:32;;;;;;;;;;;;;;;5.66;100.00;98866.85;107618;1269;60493;-68
2022/11/12 00:27:20;;;;;;;;;;;;;;;5.67;100.00;98864.92;107628;1270;72670;-68
2022/11/12 00:30:09;;;;;;;;;;;;;;;5.68;100.00;98867.84;107644;1266;69211;-68
2022/11/12 00:32:56;;;;;;;;;;;;;;;5.66;100.00;98865.12;107632;1271;69705;-68
2022/11/12 00:35:44;;;;;;;;;;;;;;;5.62;100.00;98869.55;107627;1270;60548;-68
2022/11/12 00:38:32;;;;;;;;;;;;;;;5.59;100.00;98874.16;107664;1270;60501;-68
2022/11/12 00:41:21;;;;;;;;;;;;;;;5.55;100.00;98876.86;107625;1266;72429;-68
2022/11/12 00:44:09;;;;;;;;;;;;;;;5.52;100.00;98872.80;107660;1270;69225;-68
2022/11/12 00:46:57;;;;;;;;;;;;;;;5.49;100.00;98873.73;107643;1271;69699;-68
2022/11/12 00:49:48;;;;;;;;;;;;;;;5.49;100.00;98881.35;107608;1266;60507;-68
2022/11/12 00:52:36;;;;;;;;;;;;;;;5.49;100.00;98884.29;107658;1268;60637;-68
2022/11/12 00:55:25;;;;;;;;;;;;;;;5.50;100.00;98885.31;107655;1270;71445;-69
2022/11/12 00:58:14;;;;;;;;;;;;;;;5.49;100.00;98882.05;107640;1269;69530;-68
2022/11/12 01:01:05;;;;;;;;;;;;;;;5.49;100.00;98879.62;107652;1269;69339;-69
2022/11/12 01:03:56;;;;;;;;;;;;;;;5.50;100.00;98879.07;107637;1265;60533;-69
2022/11/12 01:06:44;;;;;;;;;;;;;;;5.52;100.00;98877.48;107651;1268;60543;-69
2022/11/12 01:09:33;;;;;;;;;;;;;;;5.53;100.00;98878.63;107677;1269;72117;-69
2022/11/12 01:12:22;;;;;;;;;;;;;;;5.54;100.00;98872.73;107646;1269;68677;-69
2022/11/12 01:15:10;;;;;;;;;;;;;;;5.54;100.00;98863.40;107606;1268;69821;-69
2022/11/12 01:17:59;;;;;;;;;;;;;;;5.54;100.00;98857.69;107650;1269;60480;-69
2022/11/12 01:20:48;;;;;;;;;;;;;;;5.54;100.00;98857.69;107681;1269;60520;-71
2022/11/12 01:23:38;;;;;;;;;;;;;;;5.54;100.00;98856.48;107786;1269;72148;-70
2022/11/12 01:26:29;;;;;;;;;;;;;;;5.56;100.00;98856.42;107793;1270;69008;-70
2022/11/12 01:29:18;;;;;;;;;;;;;;;5.57;100.00;98856.90;107684;1270;69678;-70
2022/11/12 01:32:06;;;;;;;;;;;;;;;5.58;100.00;98856.34;107635;1266;60575;-71
2022/11/12 01:34:53;;;;;;;;;;;;;;;5.59;100.00;98856.68;107778;1268;60508;-70
2022/11/12 01:37:41;;;;;;;;;;;;;;;5.58;100.00;98854.43;107771;1270;72106;-71
2022/11/12 01:40:29;;;;;;;;;;;;;;;5.58;100.00;98858.25;107745;1270;68399;-70
2022/11/12 01:43:17;;;;;;;;;;;;;;;5.56;100.00;98853.84;107764;1268;68828;-70
2022/11/12 01:46:12;;;;;;;;;;;;;;;5.54;100.00;98853.02;107763;1271;60516;-70
2022/11/12 01:49:05;;;;;;;;;;;;;;;5.51;100.00;98849.49;107780;1268;60463;-70
2022/11/12 01:51:55;;;;;;;;;;;;;;;5.49;100.00;98849.73;107764;1267;72179;-70
2022/11/12 01:54:48;;;;;;;;;;;;;;;5.46;100.00;98848.41;107765;1270;68389;-71
2022/11/12 01:57:42;;;;;;;;;;;;;;;5.44;100.00;98842.45;107768;1269;69188;-70
2022/11/12 02:00:29;;;;;;;;;;;;;;;5.39;100.00;98842.39;107730;1270;60597;-70
2022/11/12 02:03:21;;;;;;;;;;;;;;;5.34;100.00;98843.93;107778;1269;60533;-71
2022/11/12 02:06:12;;;;;;;;;;;;;;;5.29;100.00;98842.00;107721;1266;72788;-71
2022/11/12 02:09:00;;;;;;;;;;;;;;;5.23;100.00;98845.80;107751;1269;69341;-70
2022/11/12 02:11:49;;;;;;;;;;;;;;;5.16;100.00;98840.45;107695;1266;69187;-71
2022/11/12 02:14:37;;;;;;;;;;;;;;;5.11;100.00;98835.60;107733;1269;60571;-70
2022/11/12 02:17:25;;;;;;;;;;;;;;;5.04;100.00;98841.65;107755;1270;60549;-70
2022/11/12 02:20:13;;;;;;;;;;;;;;;4.98;100.00;98843.57;107615;1270;72864;-71
2022/11/12 02:23:02;;;;;;;;;;;;;;;4.92;100.00;98843.89;107653;1269;68427;-69
2022/11/12 02:25:51;;;;;;;;;;;;;;;4.88;100.00;98848.14;107626;1269;69348;-69
2022/11/12 02:28:40;;;;;;;;;;;;;;;4.87;100.00;98850.78;107666;1269;60493;-70
2022/11/12 02:31:29;;;;;;;;;;;;;;;4.85;100.00;98846.67;107650;1270;60575;-69
2022/11/12 02:34:17;;;;;;;;;;;;;;;4.86;100.00;98849.06;107656;1268;72982;-69
2022/11/12 02:37:06;;;;;;;;;;;;;;;4.88;100.00;98853.66;107634;1267;69812;-69
2022/11/12 02:39:55;;;;;;;;;;;;;;;4.91;100.00;98862.25;107624;1269;69690;-70
2022/11/12 02:42:44;;;;;;;;;;;;;;;4.93;100.00;98859.23;107659;1269;60963;-69
2022/11/12 02:45:32;;;;;;;;;;;;;;;4.97;100.00;98858.60;107651;1269;60577;-70
2022/11/12 02:48:21;;;;;;;;;;;;;;;5.03;100.00;98857.42;107658;1266;71747;-70
2022/11/12 02:51:09;;;;;;;;;;;;;;;5.08;100.00;98860.91;107670;1269;69734;-70
2022/11/12 02:53:59;;;;;;;;;;;;;;;5.13;100.00;98863.02;107773;1268;69637;-70
2022/11/12 02:56:48;;;;;;;;;;;;;;;5.19;100.00;98869.09;107653;1269;60529;-70
2022/11/12 02:59:37;;;;;;;;;;;;;;;5.23;100.00;98875.36;107682;1264;60517;-71
2022/11/12 03:02:27;;;;;;;;;;;;;;;5.26;100.00;98870.77;107784;1269;72645;-69
2022/11/12 03:05:14;;;;;;;;;;;;;;;5.30;100.00;98872.41;107774;1266;69130;-69
2022/11/12 03:08:07;;;;;;;;;;;;;;;5.33;100.00;98875.06;107663;1264;69224;-69
2022/11/12 03:10:56;;;;;;;;;;;;;;;5.38;100.00;98870.25;107635;1266;60523;-70
2022/11/12 03:13:46;;;;;;;;;;;;;;;5.43;100.00;98876.70;107691;1269;60486;-69
2022/11/12 03:16:35;;;;;;;;;;;;;;;5.45;100.00;98878.19;107690;1264;71419;-69
2022/11/12 03:19:23;;;;;;;;;;;;;;;5.48;100.00;98888.14;107632;1269;68669;-69
2022/11/12 03:22:13;;;;;;;;;;;;;;;5.49;100.00;98887.05;107652;1268;68563;-69
2022/11/12 03:25:03;;;;;;;;;;;;;;;5.52;100.00;98888.00;107621;1268;60522;-70
2022/11/12 03:28:02;;;;;;;;;;;;;;;5.53;100.00;98881.05;107642;1269;60509;-70
2022/11/12 03:30:51;;;;;;;;;;;;;;;5.56;100.00;98876.30;107663;1264;72737;-70
2022/11/12 03:33:40;;;;;;;;;;;;;;;5.58;100.00;98879.52;107639;1269;69674;-70
2022/11/12 03:36:28;;;;;;;;;;;;;;;5.61;100.00;98874.08;107625;1266;69630;-70
2022/11/12 03:39:17;;;;;;;;;;;;;;;5.64;100.00;98872.09;107653;1269;60583;-69
2022/11/12 03:42:05;;;;;;;;;;;;;;;5.67;100.00;98877.00;107629;1269;60470;-69
2022/11/12 03:44:55;;;;;;;;;;;;;;;5.71;100.00;98876.93;107643;1269;72508;-70
2022/11/12 03:47:47;;;;;;;;;;;;;;;5.73;100.00;98883.08;107682;1265;69826;-70
2022/11/12 03:50:35;;;;;;;;;;;;;;;5.74;100.00;98882.89;107597;1269;68611;-70
2022/11/12 03:53:24;;;;;;;;;;;;;;;5.73;100.00;98884.46;107639;1266;60960;-69
2022/11/12 03:56:12;;;;;;;;;;;;;;;5.70;100.00;98881.47;107643;1269;60525;-70
2022/11/12 03:59:01;;;;;;;;;;;;;;;5.67;100.00;98884.81;107651;1269;72546;-70
2022/11/12 04:01:49;;;;;;;;;;;;;;;5.67;100.00;98886.20;107641;1264;68650;-70
2022/11/12 04:10:53;;;;;;;;;;;;;;;5.66;100.00;98895.23;107634;1266;60515;-70
2022/11/12 04:13:44;;;;;;;;;;;;;;;5.65;100.00;98896.46;107635;1266;72538;-70
2022/11/12 04:22:46;;;;;;;;;;;;;;;5.68;100.00;98903.11;107746;1268;60904;-71
2022/11/12 04:30:14;;;;;;;;;;;;;;;5.71;100.00;98900.10;107776;1268;71429;-70
2022/11/12 04:31:48;;;;;;;;;;;;;;;5.71;100.00;98893.35;107759;1268;69014;-70
2022/11/12 04:34:36;;;;;;;;;;;;;;;5.73;100.00;98892.41;107705;1268;69238;-70
2022/11/12 04:37:24;;;;;;;;;;;;;;;5.72;100.00;98897.11;107727;1269;60504;-70
2022/11/12 04:46:36;;;;;;;;;;;;;;;5.64;100.00;98888.54;107791;1269;69004;-70
2022/11/12 04:49:24;;;;;;;;;;;;;;;5.60;100.00;98892.28;107744;1270;68499;-70
2022/11/12 04:52:11;;;;;;;;;;;;;;;5.58;100.00;98887.13;107744;1268;60499;-70
2022/11/12 04:54:58;;;;;;;;;;;;;;;5.57;100.00;98883.02;107734;1268;60567;-70
2022/11/12 04:57:46;;;;;;;;;;;;;;;5.57;100.00;98880.09;107786;1270;72201;-70
2022/11/12 05:00:33;;;;;;;;;;;;;;;5.57;100.00;98882.48;107767;1269;69274;-71
2022/11/12 05:03:20;;;;;;;;;;;;;;;5.59;100.00;98882.10;107717;1268;69263;-71
2022/11/12 05:06:50;;;;;;;;;;;;;;;5.59;100.00;98879.48;107739;1269;60557;-71
2022/11/12 05:09:16;;;;;;;;;;;;;;;5.62;100.00;98887.89;107730;1269;60463;-70
2022/11/12 05:12:04;;;;;;;;;;;;;;;5.62;100.00;98888.55;107630;1268;72799;-69
2022/11/12 05:14:51;;;;;;;;;;;;;;;5.66;100.00;98891.42;107657;1264;67699;-69
2022/11/12 05:17:42;;;;;;;;;;;;;;;5.69;100.00;98890.81;107772;1270;69686;-69
2022/11/12 05:20:29;;;;;;;;;;;;;;;5.73;100.00;98891.23;107740;1268;60614;-69
2022/11/12 05:23:16;;;;;;;;;;;;;;;5.74;100.00;98897.58;107606;1266;60463;-69
2022/11/12 05:26:04;;;;;;;;;;;;;;;5.74;100.00;98898.79;107640;1268;72181;-69
2022/11/12 05:28:51;;;;;;;;;;;;;;;5.76;100.00;98901.15;107608;1269;68661;-72
2022/11/12 05:31:39;;;;;;;;;;;;;;;5.77;100.00;98901.30;107727;1268;69229;-71
2022/11/12 05:34:26;;;;;;;;;;;;;;;5.78;100.00;98902.48;107742;1266;60544;-70
2022/11/12 05:37:14;;;;;;;;;;;;;;;5.81;100.00;98903.59;107749;1268;60568;-70
2022/11/12 05:40:01;;;;;;;;;;;;;;;5.83;100.00;98899.91;107718;1266;72261;-70
2022/11/12 05:42:48;;;;;;;;;;;;;;;5.85;100.00;98901.20;107756;1268;68447;-70
2022/11/12 05:45:35;;;;;;;;;;;;;;;5.87;100.00;98906.36;107717;1268;69955;-70
2022/11/12 05:48:22;;;;;;;;;;;;;;;5.90;100.00;98908.17;107717;1268;60518;-70
2022/11/12 05:51:12;;;;;;;;;;;;;;;5.94;100.00;98916.92;107721;1269;60469;-70
2022/11/12 05:54:00;;;;;;;;;;;;;;;5.96;100.00;98917.01;107734;1268;72180;-70
2022/11/12 05:56:47;;;;;;;;;;;;;;;6.00;100.00;98919.33;107762;1266;68159;-70
2022/11/12 05:59:34;;;;;;;;;;;;;;;6.04;100.00;98918.84;107749;1265;68737;-69
2022/11/12 06:02:21;;;;;;;;;;;;;;;6.08;100.00;98920.12;107759;1269;60570;-70
2022/11/12 06:05:08;;;;;;;;;;;;;;;6.11;100.00;98922.59;107768;1266;60504;-70
2022/11/12 06:07:56;;;;;;;;;;;;;;;6.16;100.00;98923.50;107773;1269;70283;-70
2022/11/12 06:10:50;;;;;;;;;;;;;;;6.19;100.00;98923.58;107752;1269;69177;-70
2022/11/12 06:13:37;;;;;;;;;;;;;;;6.22;100.00;98930.25;107731;1268;69938;-70
2022/11/12 06:16:23;;;;;;;;;;;;;;;6.25;100.00;98930.66;107738;1266;60545;-70
2022/11/12 06:19:10;;;;;;;;;;;;;;;6.28;100.00;98929.52;107772;1268;60566;-71
2022/11/12 06:21:58;;;;;;;;;;;;;;;6.30;100.00;98933.96;107776;1265;72262;-71
2022/11/12 06:24:45;;;;;;;;;;;;;;;6.31;100.00;98935.85;107757;1268;69560;-71
2022/11/12 06:27:32;;;;;;;;;;;;;;;6.32;100.00;98937.90;107730;1269;69924;-71
2022/11/12 06:30:19;;;;;;;;;;;;;;;6.34;100.00;98936.46;107702;1266;60931;-71
2022/11/12 06:33:11;;;;;;;;;;;;;;;6.35;100.00;98940.41;107764;1268;60514;-71
2022/11/12 06:36:01;;;;;;;;;;;;;;;6.34;100.00;98939.90;107725;1269;72169;-71
2022/11/12 06:38:48;;;;;;;;;;;;;;;6.37;100.00;98940.67;107773;1264;68403;-71
2022/11/12 06:41:36;;;;;;;;;;;;;;;6.39;100.00;98945.13;107741;1266;69294;-71
2022/11/12 06:44:23;;;;;;;;;;;;;;;6.46;100.00;98942.30;107753;1268;60556;-71
2022/11/12 06:47:10;;;;;;;;;;;;;;;6.55;100.00;98948.59;107740;1269;60585;-71
2022/11/12 06:49:57;;;;;;;;;;;;;;;6.65;100.00;98952.95;107765;1265;72196;-71
2022/11/12 06:52:45;;;;;;;;;;;;;;;6.71;100.00;98953.11;107768;1268;68515;-71
2022/11/12 06:55:32;;;;;;;;;;;;;;;6.74;100.00;98954.05;107748;1269;69186;-71
2022/11/12 06:58:19;;;;;;;;;;;;;;;6.77;100.00;98957.77;107717;1268;60525;-71
2022/11/12 07:01:11;;;;;;;;;;;;;;;6.77;100.00;98956.20;107744;1269;60500;-71
2022/11/12 07:03:59;;;;;;;;;;;;;;;6.76;100.00;98956.05;107749;1269;71268;-71
2022/11/12 07:06:46;;;;;;;;;;;;;;;6.78;100.00;98957.18;107765;1265;69164;-71
2022/11/12 07:09:33;;;;;;;;;;;;;;;6.83;100.00;98955.48;107727;1269;69110;-71
2022/11/12 07:12:19;;;;;;;;;;;;;;;6.85;100.00;98951.92;107765;1269;60579;-71
2022/11/12 07:15:06;;;;;;;;;;;;;;;6.88;100.00;98952.88;107774;1265;60452;-71
2022/11/12 07:17:53;;;;;;;;;;;;;;;6.91;100.00;98955.38;107752;1266;72183;-71
2022/11/12 07:20:41;;;;;;;;;;;;;;;6.96;100.00;98955.90;107788;1268;69183;-70
2022/11/12 07:23:29;;;;;;;;;;;;;;;6.99;100.00;98956.33;107680;1270;68315;-71
2022/11/12 07:26:26;;;;;;;;;;;;;;;7.03;100.00;98955.84;107624;1269;60618;-69
2022/11/12 07:29:13;;;;;;;;;;;;;;;7.08;100.00;98956.38;107341;1267;552585;-71
2022/11/12 07:32:20;;;;;;;;;;;;;;;7.13;100.00;98962.46;107721;1265;71591;-71
2022/11/12 07:35:07;;;;;;;;;;;;;;;7.16;100.00;98967.19;107693;1270;68407;-70
2022/11/12 07:37:54;;;;;;;;;;;;;;;7.19;100.00;98968.31;107684;1265;68380;-70
2022/11/12 07:40:45;;;;;;;;;;;;;;;7.18;100.00;98973.54;107546;1270;60581;-71
2022/11/12 07:43:32;;;;;;;;;;;;;;;7.20;100.00;98978.85;107758;1270;60581;-71
2022/11/12 07:46:21;;;;;;;;;;;;;;;7.22;100.00;98985.21;107677;1270;71489;-71
2022/11/12 07:49:08;;;;;;;;;;;;;;;7.28;100.00;98985.85;107676;1266;69178;-71
2022/11/12 07:51:54;;;;;;;;;;;;;;;7.36;100.00;98985.91;107742;1269;70434;-71
2022/11/12 07:54:41;;;;;;;;;;;;;;;7.44;100.00;98986.34;107722;1270;60587;-71
2022/11/12 07:57:30;;;;;;;;;;;;;;;7.47;100.00;98988.65;107765;1270;60932;-71
2022/11/12 08:00:18;;;;;;;;;;;;;;;7.46;99.90;98994.58;107754;1261;72165;-71
2022/11/12 08:03:05;;;;;;;;;;;;;;;7.45;100.00;98991.52;107711;1264;69044;-71
2022/11/12 08:05:52;;;;;;;;;;;;;;;7.50;100.00;98995.83;107681;1270;69725;-71
2022/11/12 08:08:38;;;;;;;;;;;;;;;7.52;99.94;98990.38;107716;1270;60548;-71
2022/11/12 08:11:25;;;;;;;;;;;;;;;7.58;100.00;98991.23;107743;1270;60529;-71
2022/11/12 08:14:12;;;;;;;;;;;;;;;7.64;100.00;98987.89;107746;1268;72134;-71
2022/11/12 08:16:59;;;;;;;;;;;;;;;7.66;100.00;98991.79;107756;1265;68266;-71
2022/11/12 08:19:46;;;;;;;;;;;;;;;7.73;100.00;98989.28;107748;1266;69094;-71
2022/11/12 08:22:33;;;;;;;;;;;;;;;7.76;99.80;98998.91;107688;1267;60596;-70
2022/11/12 08:25:20;;;;;;;;;;;;;;;7.80;97.87;99001.02;107699;1270;60573;-71
2022/11/12 08:28:08;;;;;;;;;;;;;;;7.84;98.06;99003.81;107708;1270;70810;-71
2022/11/12 08:30:55;;;;;;;;;;;;;;;7.88;97.90;99004.19;107853;1266;69200;-71
2022/11/12 08:33:43;;;;;;;;;;;;;;;7.89;97.45;99007.95;107736;1266;68300;-71
2022/11/12 08:36:30;;;;;;;;;;;;;;;7.88;97.20;99012.02;107797;1268;60872;-71
2022/11/12 08:39:17;;;;;;;;;;;;;;;7.93;97.10;99017.39;107861;1268;60503;-71
2022/11/12 08:42:04;;;;;;;;;;;;;;;7.94;95.57;99011.80;107741;1268;72677;-71
2022/11/12 08:44:51;;;;;;;;;;;;;;;7.94;95.68;99009.38;107730;1267;69171;-71
2022/11/12 08:47:38;;;;;;;;;;;;;;;7.91;95.61;99016.23;107868;1266;68520;-71
2022/11/12 08:50:25;;;;;;;;;;;;;;;7.92;94.96;99020.01;107719;1270;60485;-71
2022/11/12 08:53:12;;;;;;;;;;;;;;;7.94;95.24;99019.77;107793;1270;60557;-71
2022/11/12 08:55:59;;;;;;;;;;;;;;;7.98;94.52;99022.77;107835;1262;71328;-71
2022/11/12 08:58:46;;;;;;;;;;;;;;;8.00;93.75;99020.41;107882;1267;67556;-71
2022/11/12 09:01:33;;;;;;;;;;;;;;;8.01;93.46;99020.90;107857;1262;69253;-70
2022/11/12 09:04:20;;;;;;;;;;;;;;;8.09;94.36;99019.40;107727;1267;60550;-70
2022/11/12 09:07:07;;;;;;;;;;;;;;;8.17;94.14;99016.14;107833;1267;60525;-70
2022/11/12 09:09:55;;;;;;;;;;;;;;;8.25;94.17;99015.31;107836;1264;72046;-70
2022/11/12 09:12:42;;;;;;;;;;;;;;;8.32;94.07;99015.56;107777;1267;68247;-70
2022/11/12 09:15:29;;;;;;;;;;;;;;;8.26;92.56;99014.76;107808;1263;70298;-70
2022/11/12 09:18:23;;;;;;;;;;;;;;;8.27;92.91;99020.97;107852;1267;60527;-70
2022/11/12 09:21:11;;;;;;;;;;;;;;;8.32;93.52;99020.63;107852;1267;60538;-70
2022/11/12 09:23:58;;;;;;;;;;;;;;;8.37;93.09;99016.97;107791;1267;72817;-70
2022/11/12 09:26:46;;;;;;;;;;;;;;;8.34;92.72;99025.06;107798;1264;69011;-70
2022/11/12 09:29:33;;;;;;;;;;;;;;;8.29;91.86;99025.77;107824;1265;68384;-70
2022/11/12 09:32:20;;;;;;;;;;;;;;;8.25;92.01;99025.41;107828;1262;60561;-70
2022/11/12 09:35:07;;;;;;;;;;;;;;;8.15;92.21;99027.33;107794;1267;60565;-70
2022/11/12 09:37:55;;;;;;;;;;;;;;;8.16;92.34;99025.38;107781;1268;72018;-70
2022/11/12 09:40:46;;;;;;;;;;;;;;;8.15;92.08;99023.49;107849;1264;68234;-70
2022/11/12 09:43:36;;;;;;;;;;;;;;;8.19;91.89;99026.33;107843;1267;69714;-70
2022/11/12 09:46:26;;;;;;;;;;;;;;;8.24;91.69;99022.81;107755;1267;60533;-70
2022/11/12 09:49:20;;;;;;;;;;;;;;;8.29;91.44;99018.48;107790;1267;60492;-70
2022/11/12 09:52:16;;;;;;;;;;;;;;;8.37;91.18;99013.13;107827;1262;72011;-70
2022/11/12 09:55:16;;;;;;;;;;;;;;;8.46;88.99;99007.95;107817;1267;69101;-70
2022/11/12 09:58:13;;;;;;;;;;;;;;;8.56;88.63;99007.21;107810;1267;69764;-70
2022/11/12 10:01:06;;;;;;;;;;;;;;;8.71;89.83;99005.58;107838;1264;60525;-70
2022/11/12 10:04:03;;;;;;;;;;;;;;;8.84;89.11;99004.54;107685;1264;60506;-71
2022/11/12 10:06:50;;;;;;;;;;;;;;;8.90;88.44;99002.04;107806;1267;72187;-71
2022/11/12 10:09:44;;;;;;;;;;;;;;;8.94;88.51;99003.44;107848;1263;69020;-71
2022/11/12 10:12:44;;;;;;;;;;;;;;;8.93;87.96;99006.23;107796;1264;68761;-71
2022/11/12 10:18:59;;;;;;;;;;;;;;;8.89;88.48;99003.11;108435;1263;60499;-69
2022/11/12 10:21:54;;;;;;;;;;;;;;;8.85;88.45;99003.64;108890;1267;72889;-71
2022/11/12 10:24:41;;;;;;;;;;;;;;;8.85;87.81;99004.13;108541;1264;68222;-71
2022/11/12 10:27:34;;;;;;;;;;;;;;;8.73;88.12;99001.66;107869;1263;68281;-70
2022/11/12 10:30:23;;;;;;;;;;;;;;;8.74;88.20;99005.29;107838;1265;60560;-69
2022/11/12 10:33:12;;;;;;;;;;;;;;;8.65;89.33;99003.71;107864;1264;60501;-70
2022/11/12 10:36:12;;;;;;;;;;;;;;;8.63;88.57;99004.33;107730;1263;72872;-70
2022/11/12 10:38:59;;;;;;;;;;;;;;;8.52;89.14;99003.21;107709;1262;69250;-69
2022/11/12 10:42:00;;;;;;;;;;;;;;;8.46;89.71;99000.29;107689;1265;69444;-69
2022/11/12 10:44:48;;;;;;;;;;;;;;;8.47;89.77;99000.11;107609;1265;60503;-70
2022/11/12 10:47:41;;;;;;;;;;;;;;;8.61;89.60;99002.48;107720;1267;60505;-70
2022/11/12 10:50:29;;;;;;;;;;;;;;;8.80;88.51;99001.39;107680;1263;71721;-69
2022/11/12 10:53:37;;;;;;;;;;;;;;;8.88;87.09;99000.90;107656;1267;68738;-70
2022/11/12 10:56:26;;;;;;;;;;;;;;;8.90;86.53;98999.79;107697;1263;69892;-70
2022/11/12 10:59:15;;;;;;;;;;;;;;;8.92;87.14;98997.94;107671;1263;60984;-70
2022/11/12 11:02:02;;;;;;;;;;;;;;;8.82;86.52;98995.23;107694;1267;60500;-69
2022/11/12 11:04:49;;;;;;;;;;;;;;;8.80;86.75;98996.00;107658;1262;72105;-69
2022/11/12 11:07:36;;;;;;;;;;;;;;;8.97;85.81;98994.08;107695;1264;68046;-70
2022/11/12 11:10:26;;;;;;;;;;;;;;;9.12;85.98;98994.83;107675;1263;69015;-70
2022/11/12 11:13:15;;;;;;;;;;;;;;;9.25;84.99;98996.59;107614;1267;60580;-70
2022/11/12 11:16:03;;;;;;;;;;;;;;;9.46;84.93;98999.15;107684;1267;60888;-70
2022/11/12 11:18:58;;;;;;;;;;;;;;;9.77;83.33;98994.33;107710;1267;71908;-70
2022/11/12 11:21:45;;;;;;;;;;;;;;;9.96;81.99;98992.77;107716;1265;69697;-70
2022/11/12 11:24:52;;;;;;;;;;;;;;;9.97;82.03;98985.92;107640;1265;70025;-70
2022/11/12 11:27:57;;;;;;;;;;;;;;;9.84;81.13;98987.39;107811;1267;60569;-71
2022/11/12 11:30:55;;;;;;;;;;;;;;;9.56;81.91;98991.77;107760;1267;60561;-70
2022/11/12 11:33:54;;;;;;;;;;;;;;;9.32;81.97;98997.15;107777;1267;72644;-70
2022/11/12 11:36:48;;;;;;;;;;;;;;;9.20;83.01;98997.45;107869;1263;69078;-70
2022/11/12 11:39:37;;;;;;;;;;;;;;;9.17;82.88;98995.52;107808;1267;68756;-71
2022/11/12 11:42:34;;;;;;;;;;;;;;;9.18;83.70;98994.25;107814;1267;60471;-70
2022/11/12 11:45:26;;;;;;;;;;;;;;;9.12;82.80;98993.64;107827;1265;60505;-71
2022/11/12 11:48:19;;;;;;;;;;;;;;;9.20;83.00;98993.80;107818;1267;72271;-70
2022/11/12 11:51:24;;;;;;;;;;;;;;;9.20;83.42;98991.73;107823;1267;69060;-70
2022/11/12 11:54:18;;;;;;;;;;;;;;;9.52;82.63;98986.52;107840;1263;69101;-70
2022/11/12 11:57:10;;;;;;;;;;;;;;;9.71;80.18;98980.67;107809;1263;60557;-70
2022/11/12 12:00:10;;;;;;;;;;;;;;;10.60;78.95;98982.66;107809;1267;60474;-70
2022/11/12 12:03:06;;;;;;;;;;;;;;;12.16;73.20;98975.20;107778;1264;72018;-70
2022/11/12 12:06:12;;;;;;;;;;;;;;;13.85;72.02;98972.98;107850;1263;69957;-71
2022/11/12 12:09:02;;;;;;;;;;;;;;;15.48;70.07;98976.84;107832;1264;69321;-71
2022/11/12 12:12:08;;;;;;;;;;;;;;;16.66;60.31;98968.73;107779;1262;60525;-71
2022/11/12 12:14:55;;;;;;;;;;;;;;;17.76;60.46;98967.40;107779;1262;60465;-71
2022/11/12 12:17:56;;;;;;;;;;;;;;;18.62;57.25;98964.61;107817;1267;72872;-72
2022/11/12 12:20:50;;;;;;;;;;;;;;;19.22;52.46;98967.08;107864;1267;69248;-71
2022/11/12 12:23:45;;;;;;;;;;;;;;;19.33;50.75;98967.41;107820;1263;68696;-72
2022/11/12 12:26:36;;;;;;;;;;;;;;;18.60;49.07;98960.73;107853;1262;60526;-71
2022/11/12 12:29:29;;;;;;;;;;;;;;;18.77;48.78;98962.34;107787;1262;60584;-71
2022/11/12 12:32:27;;;;;;;;;;;;;;;19.03;48.88;98959.65;107774;1262;72165;-71
2022/11/12 12:35:35;;;;;;;;;;;;;;;19.40;48.25;98958.27;107866;1265;69269;-70
2022/11/12 12:38:37;;;;;;;;;;;;;;;19.78;46.80;98952.60;107854;1264;68454;-71
2022/11/12 12:41:29;;;;;;;;;;;;;;;19.60;44.97;98950.73;107794;1267;60524;-71
2022/11/12 12:44:16;;;;;;;;;;;;;;;18.61;46.63;98949.45;107907;1262;60518;-71
2022/11/12 12:47:04;;;;;;;;;;;;;;;18.52;47.37;98948.44;107864;1264;72264;-71
2022/11/12 12:49:51;;;;;;;;;;;;;;;18.71;46.53;98950.08;107803;1267;68086;-71
2022/11/12 12:52:57;;;;;;;;;;;;;;;18.49;46.81;98945.67;107821;1263;69910;-71
2022/11/12 12:55:44;;;;;;;;;;;;;;;18.20;46.73;98949.09;107816;1263;60477;-71
2022/11/12 12:58:32;;;;;;;;;;;;;;;18.88;46.69;98948.13;107860;1265;60496;-71
2022/11/12 13:01:22;;;;;;;;;;;;;;;18.95;46.01;98947.98;107840;1263;71499;-69
2022/11/12 13:04:10;;;;;;;;;;;;;;;18.72;46.23;98950.35;107862;1267;70597;-71
2022/11/12 13:06:57;;;;;;;;;;;;;;;18.28;46.72;98947.86;107846;1267;69920;-72
2022/11/12 13:09:44;;;;;;;;;;;;;;;18.17;46.23;98944.02;107854;1267;60568;-71
2022/11/12 13:13:00;;;;;;;;;;;;;;;18.24;46.05;98947.14;107864;1264;60536;-71
2022/11/12 13:15:47;;;;;;;;;;;;;;;18.45;45.93;98952.21;107821;1265;72148;-71
2022/11/12 13:18:38;;;;;;;;;;;;;;;18.61;45.63;98951.45;107893;1267;69058;-71
2022/11/12 13:21:26;;;;;;;;;;;;;;;18.77;44.68;98950.15;107907;1261;68306;-72
2022/11/12 13:24:13;;;;;;;;;;;;;;;18.65;45.36;98949.14;107844;1269;60584;-71
2022/11/12 13:27:00;;;;;;;;;;;;;;;19.18;44.82;98952.05;107827;1262;60535;-71
2022/11/12 13:29:48;;;;;;;;;;;;;;;18.92;44.52;98950.79;107833;1267;72667;-71
2022/11/12 13:32:47;;;;;;;;;;;;;;;18.37;45.29;98950.17;107849;1263;69033;-71
2022/11/12 13:35:35;;;;;;;;;;;;;;;18.27;46.25;98948.02;107831;1267;69083;-71
2022/11/12 13:38:22;;;;;;;;;;;;;;;18.34;45.27;98945.33;107778;1267;60549;-71
2022/11/12 13:41:10;;;;;;;;;;;;;;;18.16;45.68;98946.73;107819;1267;60568;-71
2022/11/12 13:43:57;;;;;;;;;;;;;;;18.31;45.15;98937.77;107790;1267;71434;-70
2022/11/12 13:46:44;;;;;;;;;;;;;;;18.43;45.78;98943.47;107804;1265;68300;-70
2022/11/12 13:49:34;;;;;;;;;;;;;;;17.97;46.08;98938.44;107816;1263;69130;-70
2022/11/12 13:52:21;;;;;;;;;;;;;;;17.58;46.83;98939.99;107745;1265;60537;-70
2022/11/12 13:55:16;;;;;;;;;;;;;;;17.89;46.54;98937.96;107789;1264;60524;-70
2022/11/12 13:58:05;;;;;;;;;;;;;;;17.55;46.61;98937.26;107794;1263;72008;-71
2022/11/12 14:00:54;;;;;;;;;;;;;;;17.75;46.61;98936.39;107873;1265;69399;-71
2022/11/12 14:03:43;;;;;;;;;;;;;;;17.97;46.74;98929.95;107819;1266;68354;-70
2022/11/12 14:06:33;;;;;;;;;;;;;;;17.99;46.89;98929.22;107816;1267;60570;-71
2022/11/12 14:09:29;;;;;;;;;;;;;;;17.94;46.55;98925.95;107808;1265;60495;-71
2022/11/12 14:12:35;;;;;;;;;;;;;;;17.81;46.92;98923.55;107816;1265;72202;-70
2022/11/12 14:15:41;;;;;;;;;;;;;;;17.93;46.72;98924.39;107835;1263;68402;-70
2022/11/12 14:18:45;;;;;;;;;;;;;;;17.49;47.66;98923.91;107823;1264;69069;-70
2022/11/12 14:21:32;;;;;;;;;;;;;;;17.11;48.48;98921.39;107796;1265;60685;-71
2022/11/12 14:24:19;;;;;;;;;;;;;;;16.67;49.56;98920.66;107846;1267;60474;-70
2022/11/12 14:27:25;;;;;;;;;;;;;;;16.15;50.66;98918.76;107800;1264;71384;-70
2022/11/12 14:30:12;;;;;;;;;;;;;;;15.68;51.51;98918.09;107856;1262;69026;-70
2022/11/12 14:33:09;;;;;;;;;;;;;;;15.10;52.90;98919.16;107783;1262;68742;-70
2022/11/12 14:36:00;;;;;;;;;;;;;;;14.57;54.33;98913.58;107829;1267;60567;-70
2022/11/12 14:38:51;;;;;;;;;;;;;;;13.98;55.93;98911.22;107838;1263;60583;-70
2022/11/12 14:41:41;;;;;;;;;;;;;;;13.34;57.82;98912.67;107759;1271;72014;-72
2022/11/12 14:44:33;;;;;;;;;;;;;;;12.68;59.60;98911.13;107644;1266;69130;-72
2022/11/12 14:47:21;;;;;;;;;;;;;;;11.85;62.26;98910.16;107737;1270;69823;-71
2022/11/12 14:50:35;;;;;;;;;;;;;;;11.01;65.11;98911.27;107728;1269;60852;-71
2022/11/12 14:53:28;;;;;;;;;;;;;;;10.25;68.92;98912.33;107749;1269;60500;-71
2022/11/12 14:56:27;;;;;;;;;;;;;;;9.76;70.46;98912.00;107752;1267;72199;-72
2022/11/12 14:59:21;;;;;;;;;;;;;;;9.12;73.74;98911.38;107734;1266;69239;-70
2022/11/12 15:02:08;;;;;;;;;;;;;;;8.61;76.83;98916.15;107714;1266;69276;-70
2022/11/12 15:05:17;;;;;;;;;;;;;;;8.19;79.58;98915.31;107766;1270;60566;-71